createdAt,value
2022-11-18T00:01:22.834Z,0.80
2022-11-18T00:03:50.652Z,1.33
2022-11-18T00:06:23.704Z,0.40
2022-11-18T00:08:52.859Z,0.87
2022-11-18T00:11:43.739Z,0.63
2022-11-18T00:14:20.477Z,0.60
2022-11-18T00:17:03.193Z,0.50
2022-11-18T00:19:35.818Z,0.90
2022-11-18T00:22:06.926Z,0.40
2022-11-18T00:24:37.118Z,1.07
2022-11-18T00:27:04.978Z,1.90
2022-11-18T00:29:33.522Z,0.47
2022-11-18T00:32:01.874Z,0.20
2022-11-18T00:34:28.761Z,0.80
2022-11-18T00:36:56.367Z,0.30
2022-11-18T00:39:24.143Z,0.70
2022-11-18T00:42:12.387Z,0.30
2022-11-18T00:44:41.821Z,0.73
2022-11-18T00:47:09.429Z,0.40
2022-11-18T00:49:37.045Z,1.10
2022-11-18T00:52:05.568Z,0.70
2022-11-18T00:54:32.513Z,0.30
2022-11-18T00:57:00.413Z,2.00
2022-11-18T00:59:28.027Z,0.83
2022-11-18T01:01:55.703Z,0.10
2022-11-18T01:04:23.647Z,0.40
2022-11-18T01:06:52.941Z,0.20
2022-11-18T01:09:20.070Z,0.20
2022-11-18T01:12:05.760Z,0.60
2022-11-18T01:14:33.485Z,2.10
2022-11-18T01:17:01.099Z,0.30
2022-11-18T01:19:30.109Z,0.70
2022-11-18T01:22:02.961Z,0.30
2022-11-18T01:24:32.186Z,0.73
2022-11-18T01:27:01.896Z,0.50
2022-11-18T01:29:29.755Z,0.33
2022-11-18T01:32:22.709Z,1.57
2022-11-18T01:34:44.202Z,0.93
2022-11-18T01:37:11.814Z,0.50
2022-11-18T01:39:39.404Z,0.87
2022-11-18T01:42:15.935Z,0.40
2022-11-18T01:45:10.130Z,0.50
2022-11-18T01:47:53.221Z,2.17
2022-11-18T01:50:23.469Z,0.20
2022-11-18T01:52:56.427Z,1.47
2022-11-18T01:55:27.093Z,0.87
2022-11-18T01:58:03.369Z,1.20
2022-11-18T02:00:31.849Z,2.20
2022-11-18T02:03:01.915Z,0.30
2022-11-18T02:05:30.502Z,1.20
2022-11-18T02:08:00.288Z,1.73
2022-11-18T02:10:28.944Z,2.73
2022-11-18T02:12:58.932Z,0.47
2022-11-18T02:15:47.176Z,1.37
2022-11-18T02:18:30.996Z,0.90
2022-11-18T02:21:38.921Z,1.93
2022-11-18T02:24:14.604Z,3.20
2022-11-18T02:27:03.861Z,0.87
2022-11-18T02:29:44.029Z,1.53
2022-11-18T02:32:19.366Z,2.20
2022-11-18T02:34:51.699Z,0.47
2022-11-18T02:37:31.054Z,4.07
2022-11-18T02:40:20.999Z,0.87
2022-11-18T02:42:55.811Z,2.70
2022-11-18T02:45:27.711Z,0.57
2022-11-18T02:47:58.472Z,3.40
2022-11-18T02:50:29.928Z,2.47
2022-11-18T02:53:01.431Z,0.57
2022-11-18T02:55:32.590Z,0.63
2022-11-18T02:58:01.349Z,2.30
2022-11-18T03:00:28.933Z,0.63
2022-11-18T03:02:56.635Z,1.77
2022-11-18T03:05:46.707Z,0.70
2022-11-18T03:08:20.833Z,1.87
2022-11-18T03:11:05.961Z,1.67
2022-11-18T03:13:49.782Z,1.33
2022-11-18T03:16:32.644Z,5.17
2022-11-18T03:19:44.416Z,2.93
2022-11-18T03:22:37.429Z,0.40
2022-11-18T03:25:34.874Z,1.13
2022-11-18T03:28:17.018Z,4.90
2022-11-18T03:30:54.611Z,0.67
2022-11-18T03:33:30.065Z,1.33
2022-11-18T03:35:58.931Z,1.03
2022-11-18T03:38:31.669Z,0.30
2022-11-18T03:41:04.376Z,1.23
2022-11-18T03:43:41.527Z,1.37
2022-11-18T03:46:21.852Z,0.40
2022-11-18T03:48:56.517Z,1.40
2022-11-18T03:51:30.158Z,1.17
2022-11-18T03:54:07.634Z,0.97
2022-11-18T03:56:39.802Z,0.63
2022-11-18T03:59:20.946Z,0.60
2022-11-18T04:01:54.473Z,2.33
2022-11-18T04:04:25.042Z,1.70
2022-11-18T04:07:19.215Z,1.53
2022-11-18T04:09:59.051Z,0.70
2022-11-18T04:12:33.015Z,0.30
2022-11-18T04:15:00.670Z,1.17
2022-11-18T04:17:29.293Z,0.70
2022-11-18T04:19:56.598Z,0.60
2022-11-18T04:22:24.194Z,1.80
2022-11-18T04:24:51.772Z,0.70
2022-11-18T04:29:07.973Z,1.43
2022-11-18T04:31:36.313Z,2.60
2022-11-18T04:34:04.596Z,0.90
2022-11-18T04:36:32.196Z,0.20
2022-11-18T04:38:59.938Z,1.53
2022-11-18T04:41:48.247Z,2.57
2022-11-18T04:44:18.121Z,0.77
2022-11-18T04:46:46.596Z,0.40
2022-11-18T04:49:15.609Z,1.63
2022-11-18T04:51:46.975Z,0.60
2022-11-18T04:54:16.425Z,1.73
2022-11-18T04:56:49.055Z,0.70
2022-11-18T04:59:21.053Z,0.40
2022-11-18T05:01:51.583Z,1.17
2022-11-18T05:04:22.936Z,1.30
2022-11-18T05:06:51.601Z,3.43
2022-11-18T05:09:20.775Z,0.97
2022-11-18T05:12:09.341Z,2.20
2022-11-18T05:14:39.861Z,1.30
2022-11-18T05:17:09.148Z,1.17
2022-11-18T05:19:39.411Z,2.80
2022-11-18T05:22:08.293Z,1.40
2022-11-18T05:24:36.027Z,1.13
2022-11-18T05:27:04.426Z,2.50
2022-11-18T05:29:33.763Z,2.03
2022-11-18T05:32:00.693Z,0.90
2022-11-18T05:34:31.143Z,0.80
2022-11-18T05:36:58.706Z,1.47
2022-11-18T05:39:26.298Z,1.53
2022-11-18T05:42:13.079Z,0.83
2022-11-18T05:44:41.353Z,2.33
2022-11-18T05:47:10.688Z,2.90
2022-11-18T05:49:40.461Z,0.57
2022-11-18T05:52:08.847Z,1.27
2022-11-18T05:54:42.231Z,0.50
2022-11-18T05:57:10.529Z,19.77
2022-11-18T05:59:39.576Z,9.33
2022-11-18T06:02:21.956Z,2.57
2022-11-18T06:04:59.827Z,2.63
2022-11-18T06:07:47.725Z,1.93
2022-11-18T06:10:21.150Z,1.40
2022-11-18T06:12:52.816Z,5.07
2022-11-18T06:15:26.908Z,1.83
2022-11-18T06:18:27.330Z,2.23
2022-11-18T06:20:59.958Z,1.67
2022-11-18T06:23:29.593Z,2.57
2022-11-18T06:25:57.214Z,3.03
2022-11-18T06:28:27.930Z,3.70
2022-11-18T06:30:55.582Z,1.63
2022-11-18T06:33:24.058Z,1.83
2022-11-18T06:35:50.923Z,1.57
2022-11-18T06:38:17.772Z,1.60
2022-11-18T06:40:45.565Z,4.63
2022-11-18T06:43:32.361Z,2.43
2022-11-18T06:46:21.455Z,2.17
2022-11-18T06:48:49.986Z,1.57
2022-11-18T06:51:17.164Z,0.97
2022-11-18T06:53:45.027Z,1.23
2022-11-18T06:56:14.822Z,0.50
2022-11-18T06:58:43.859Z,1.90
2022-11-18T07:01:14.844Z,2.03
2022-11-18T07:03:43.851Z,2.73
2022-11-18T07:06:13.242Z,2.23
2022-11-18T07:08:42.439Z,1.50
2022-11-18T07:11:12.337Z,2.83
2022-11-18T07:13:43.788Z,4.40
2022-11-18T07:16:26.515Z,1.97
2022-11-18T07:18:55.134Z,1.57
2022-11-18T07:21:26.102Z,1.30
2022-11-18T07:23:55.569Z,1.60
2022-11-18T07:26:25.271Z,3.60
2022-11-18T07:28:54.345Z,1.07
2022-11-18T07:31:22.025Z,2.47
2022-11-18T07:33:50.219Z,1.70
2022-11-18T07:36:19.590Z,226.00
2022-11-18T07:38:48.331Z,102.77
2022-11-18T07:41:28.263Z,219.37
2022-11-18T07:44:00.797Z,350.83
2022-11-18T07:46:35.808Z,316.43
2022-11-18T07:49:12.095Z,305.53
2022-11-18T07:51:41.889Z,225.93
2022-11-18T07:54:12.923Z,269.37
2022-11-18T07:56:41.327Z,210.03
2022-11-18T07:59:10.423Z,75.17
2022-11-18T08:01:38.781Z,74.57
2022-11-18T08:04:07.826Z,48.93
2022-11-18T08:06:36.782Z,11.53
2022-11-18T08:09:06.879Z,4.00
2022-11-18T08:11:36.568Z,2.27
2022-11-18T08:14:04.902Z,5.63
2022-11-18T08:16:33.220Z,2.30
2022-11-18T08:19:03.770Z,1.97
2022-11-18T08:21:31.438Z,2.20
2022-11-18T08:23:59.716Z,4.57
2022-11-18T08:26:27.882Z,1.57
2022-11-18T08:28:58.146Z,1.27
2022-11-18T08:31:28.511Z,0.60
2022-11-18T08:34:03.514Z,1.37
2022-11-18T08:36:34.829Z,1.10
2022-11-18T08:39:03.886Z,1.33
2022-11-18T08:41:34.066Z,11.70
2022-11-18T08:44:03.669Z,53.77
2022-11-18T08:46:31.941Z,43.43
2022-11-18T08:49:00.377Z,52.63
2022-11-18T08:51:29.186Z,7.43
2022-11-18T08:53:57.741Z,4.60
2022-11-18T08:56:26.736Z,3.67
2022-11-18T08:58:55.953Z,5.13
2022-11-18T09:01:24.629Z,4.30
2022-11-18T09:03:54.040Z,2.80
2022-11-18T09:06:24.843Z,4.80
2022-11-18T09:08:54.151Z,1.83
2022-11-18T09:11:25.302Z,2.33
2022-11-18T09:14:39.072Z,2.87
2022-11-18T09:16:41.860Z,1.00
2022-11-18T09:19:39.613Z,1.37
2022-11-18T09:21:56.260Z,0.70
2022-11-18T09:24:23.860Z,1.90
2022-11-18T09:26:53.710Z,0.73
2022-11-18T09:29:26.221Z,1.80
2022-11-18T09:31:55.632Z,0.73
2022-11-18T09:34:24.009Z,0.70
2022-11-18T09:36:51.408Z,1.30
2022-11-18T09:39:19.331Z,0.63
2022-11-18T09:41:48.755Z,3.03
2022-11-18T09:44:49.458Z,1.07
2022-11-18T09:47:33.766Z,1.70
2022-11-18T09:53:18.243Z,1.53
2022-11-18T09:55:45.611Z,1.87
2022-11-18T09:58:33.987Z,0.73
2022-11-18T10:01:02.645Z,0.70
2022-11-18T10:03:31.773Z,1.93
2022-11-18T10:06:11.941Z,0.93
2022-11-18T10:08:43.282Z,0.80
2022-11-18T10:11:42.086Z,1.13
2022-11-18T10:14:37.370Z,0.80
2022-11-18T10:17:31.433Z,1.47
2022-11-18T10:20:18.555Z,2.73
2022-11-18T10:22:52.781Z,0.50
2022-11-18T10:25:21.248Z,1.00
2022-11-18T10:27:51.118Z,0.60
2022-11-18T10:30:26.299Z,0.40
2022-11-18T10:33:04.211Z,2.27
2022-11-18T10:35:38.654Z,0.87
2022-11-18T10:38:14.910Z,0.60
2022-11-18T10:41:05.393Z,0.80
2022-11-18T10:43:52.478Z,0.40
2022-11-18T10:46:33.766Z,1.47
2022-11-18T10:49:10.501Z,2.03
2022-11-18T10:52:09.178Z,0.80
2022-11-18T10:54:38.241Z,2.93
2022-11-18T10:57:14.368Z,1.10
2022-11-18T10:59:57.663Z,0.53
2022-11-18T11:02:33.650Z,1.13
2022-11-18T11:05:04.949Z,2.77
2022-11-18T11:07:36.448Z,1.20
2022-11-18T11:10:07.292Z,4.10
2022-11-18T11:12:38.646Z,0.47
2022-11-18T11:15:39.707Z,1.57
2022-11-18T11:18:42.187Z,0.90
2022-11-18T11:21:14.812Z,0.53
2022-11-18T11:23:43.732Z,1.63
2022-11-18T11:30:04.888Z,0.37
2022-11-18T11:32:45.289Z,0.47
2022-11-18T11:35:23.119Z,1.33
2022-11-18T11:38:17.473Z,1.13
2022-11-18T11:40:50.944Z,0.83
2022-11-18T11:43:24.253Z,1.27
2022-11-18T11:46:15.629Z,1.33
2022-11-18T11:49:01.337Z,0.40
2022-11-18T11:51:44.176Z,0.80
2022-11-18T11:54:32.928Z,2.00
2022-11-18T11:57:10.928Z,1.03
2022-11-18T11:59:49.144Z,0.20
2022-11-18T12:02:37.001Z,1.23
2022-11-18T12:05:15.521Z,0.50
2022-11-18T12:07:58.813Z,1.37
2022-11-18T12:10:33.768Z,0.90
2022-11-18T12:13:56.849Z,0.43
2022-11-18T12:16:51.777Z,0.83
2022-11-18T12:19:23.354Z,2.03
2022-11-18T12:22:03.918Z,2.27
2022-11-18T12:24:31.572Z,1.50
2022-11-18T12:27:05.580Z,1.90
2022-11-18T12:29:41.143Z,1.07
2022-11-18T12:32:34.835Z,0.60
2022-11-18T12:35:04.484Z,1.33
2022-11-18T12:37:31.459Z,1.10
2022-11-18T12:39:59.512Z,2.63
2022-11-18T12:43:06.282Z,0.40
2022-11-18T12:45:40.116Z,0.50
2022-11-18T12:48:35.708Z,0.60
2022-11-18T12:51:26.488Z,0.50
2022-11-18T12:53:54.820Z,1.10
2022-11-18T12:56:34.527Z,4.13
2022-11-18T12:59:03.648Z,1.77
2022-11-18T13:01:37.239Z,1.57
2022-11-18T13:04:08.019Z,0.77
2022-11-18T13:06:39.100Z,1.23
2022-11-18T13:09:29.433Z,0.57
2022-11-18T13:12:04.790Z,1.33
2022-11-18T13:14:52.660Z,0.40
2022-11-18T13:17:52.346Z,3.00
2022-11-18T13:20:33.493Z,1.50
2022-11-18T13:23:33.442Z,1.80
2022-11-18T13:26:07.581Z,1.43
2022-11-18T13:28:55.649Z,0.57
2022-11-18T13:31:43.067Z,1.83
2022-11-18T13:34:22.183Z,1.80
2022-11-18T13:36:51.170Z,1.67
2022-11-18T13:39:27.247Z,0.40
2022-11-18T13:42:07.092Z,0.50
2022-11-18T13:44:37.728Z,1.43
2022-11-18T13:47:21.021Z,1.80
2022-11-18T13:49:53.792Z,0.50
2022-11-18T13:52:36.956Z,1.03
2022-11-18T13:55:27.003Z,0.40
2022-11-18T13:58:18.254Z,1.07
2022-11-18T14:01:00.790Z,0.60
2022-11-18T14:03:56.467Z,2.53
2022-11-18T14:06:30.908Z,0.97
2022-11-18T14:09:20.484Z,1.03
2022-11-18T14:12:21.783Z,1.87
2022-11-18T14:14:50.519Z,0.60
2022-11-18T14:17:22.816Z,1.23
2022-11-18T14:19:55.131Z,0.40
2022-11-18T14:22:27.757Z,0.67
2022-11-18T14:25:14.701Z,0.73
2022-11-18T14:27:43.575Z,1.20
2022-11-18T14:30:38.464Z,0.77
2022-11-18T14:33:21.337Z,1.13
2022-11-18T14:35:56.873Z,0.90
2022-11-18T14:39:11.297Z,1.07
2022-11-18T14:41:47.156Z,0.47
2022-11-18T14:44:20.504Z,1.20
2022-11-18T14:46:57.203Z,1.13
2022-11-18T14:49:26.812Z,0.80
2022-11-18T14:51:55.418Z,2.03
2022-11-18T14:54:27.639Z,0.77
2022-11-18T14:57:02.596Z,1.10
2022-11-18T14:59:30.380Z,2.27
2022-11-18T15:01:59.591Z,0.60
2022-11-18T15:04:28.002Z,1.00
2022-11-18T15:06:56.161Z,1.53
2022-11-18T15:09:23.971Z,1.00
2022-11-18T15:11:52.267Z,1.93
2022-11-18T15:14:20.900Z,2.00
2022-11-18T15:16:49.607Z,1.73
2022-11-18T15:19:17.283Z,0.60
2022-11-18T15:21:46.436Z,2.47
2022-11-18T15:24:14.898Z,1.27
2022-11-18T15:26:46.616Z,0.70
2022-11-18T15:29:25.151Z,0.40
2022-11-18T15:31:53.528Z,1.03
2022-11-18T15:34:23.033Z,1.70
2022-11-18T15:36:51.579Z,1.27
2022-11-18T15:39:19.987Z,2.03
2022-11-18T15:41:49.132Z,0.70
2022-11-18T15:44:17.387Z,0.70
2022-11-18T15:46:48.145Z,1.13
2022-11-18T15:49:17.954Z,4.00
2022-11-18T15:51:46.633Z,0.50
2022-11-18T15:54:14.746Z,0.77
2022-11-18T15:56:42.393Z,0.50
2022-11-18T15:59:12.538Z,0.70
2022-11-18T16:01:54.245Z,1.27
2022-11-18T16:04:22.323Z,2.57
2022-11-18T16:06:50.293Z,0.87
2022-11-18T16:09:18.361Z,1.40
2022-11-18T16:12:04.332Z,1.70
2022-11-18T16:14:32.082Z,0.57
2022-11-18T16:17:00.607Z,0.80
2022-11-18T16:19:31.324Z,1.53
2022-11-18T16:21:59.836Z,0.57
2022-11-18T16:24:29.797Z,1.63
2022-11-18T16:26:58.139Z,0.97
2022-11-18T16:29:27.605Z,0.87
2022-11-18T16:31:54.987Z,1.90
2022-11-18T16:34:27.571Z,1.83
2022-11-18T16:36:56.669Z,0.40
2022-11-18T16:39:27.245Z,0.57
2022-11-18T16:42:08.434Z,0.87
2022-11-18T16:44:36.771Z,0.50
2022-11-18T16:47:10.536Z,1.20
2022-11-18T16:49:43.021Z,0.83
2022-11-18T16:52:10.650Z,0.40
2022-11-18T16:54:44.175Z,2.97
2022-11-18T16:57:15.603Z,3.23
2022-11-18T16:59:42.508Z,0.70
2022-11-18T17:02:13.697Z,1.07
2022-11-18T17:04:40.728Z,1.03
2022-11-18T17:07:07.599Z,2.03
2022-11-18T17:09:37.287Z,0.63
2022-11-18T17:12:05.988Z,1.00
2022-11-18T17:14:34.158Z,1.80
2022-11-18T17:17:02.512Z,0.60
2022-11-18T17:19:30.893Z,0.87
2022-11-18T17:21:59.431Z,0.97
2022-11-18T17:24:27.116Z,0.40
2022-11-18T17:26:55.419Z,0.53
2022-11-18T17:29:23.473Z,1.17
2022-11-18T17:31:51.026Z,0.57
2022-11-18T17:34:18.407Z,2.57
2022-11-18T17:36:46.130Z,0.87
2022-11-18T17:39:17.664Z,2.17
2022-11-18T17:42:05.662Z,0.73
2022-11-18T17:44:33.228Z,0.50
2022-11-18T17:47:02.872Z,0.60
2022-11-18T17:49:32.667Z,0.70
2022-11-18T17:51:59.539Z,1.73
2022-11-18T17:54:27.212Z,0.50
2022-11-18T17:56:55.619Z,0.87
2022-11-18T17:59:24.045Z,0.80
2022-11-18T18:01:57.277Z,1.17
2022-11-18T18:04:26.577Z,0.53
2022-11-18T18:06:53.886Z,1.40
2022-11-18T18:09:28.462Z,0.63
2022-11-18T18:11:58.619Z,0.30
2022-11-18T18:14:26.196Z,0.50
2022-11-18T18:16:53.191Z,0.40
2022-11-18T18:19:22.425Z,0.60
2022-11-18T18:21:53.195Z,1.23
2022-11-18T18:24:21.381Z,1.07
2022-11-18T18:26:49.078Z,3.03
2022-11-18T18:29:22.281Z,0.97
2022-11-18T18:31:50.696Z,3.77
2022-11-18T18:34:19.453Z,0.50
2022-11-18T18:36:47.864Z,1.00
2022-11-18T18:39:17.555Z,1.27
2022-11-18T18:41:46.031Z,0.60
2022-11-18T18:44:18.672Z,0.60
2022-11-18T18:46:46.598Z,3.33
2022-11-18T18:49:20.286Z,0.67
2022-11-18T18:51:51.055Z,1.10
2022-11-18T18:54:20.237Z,3.53
2022-11-18T18:56:48.763Z,0.77
2022-11-18T18:59:17.322Z,2.90
2022-11-18T19:01:45.709Z,2.97
2022-11-18T19:04:15.823Z,2.27
2022-11-18T19:06:59.438Z,3.03
2022-11-18T19:09:28.440Z,2.13
2022-11-18T19:12:14.681Z,0.73
2022-11-18T19:14:42.449Z,1.77
2022-11-18T19:17:12.145Z,0.73
2022-11-18T19:20:02.250Z,1.30
2022-11-18T19:22:31.795Z,0.33
2022-11-18T19:25:01.399Z,0.77
2022-11-18T19:27:30.440Z,0.63
2022-11-18T19:29:57.308Z,1.13
2022-11-18T19:32:24.244Z,0.70
2022-11-18T19:34:51.100Z,1.90
2022-11-18T19:37:18.622Z,0.77
2022-11-18T19:39:47.355Z,3.83
2022-11-18T19:42:16.123Z,1.13
2022-11-18T19:44:43.727Z,0.67
2022-11-18T19:47:14.052Z,2.77
2022-11-18T19:49:43.070Z,1.17
2022-11-18T19:52:12.539Z,1.47
2022-11-18T19:54:41.315Z,1.10
2022-11-18T19:57:08.505Z,3.03
2022-11-18T19:59:36.882Z,1.90
2022-11-18T20:02:04.546Z,4.03
2022-11-18T20:04:33.135Z,2.53
2022-11-18T20:07:01.782Z,3.37
2022-11-18T20:09:29.599Z,5.77
2022-11-18T20:11:57.264Z,2.27
2022-11-18T20:14:25.491Z,3.23
2022-11-18T20:16:53.428Z,3.67
2022-11-18T20:19:21.180Z,5.37
2022-11-18T20:21:49.792Z,3.03
2022-11-18T20:24:18.765Z,3.87
2022-11-18T20:26:46.795Z,3.70
2022-11-18T20:29:14.496Z,2.77
2022-11-18T20:31:42.857Z,3.83
2022-11-18T20:34:14.480Z,3.87
2022-11-18T20:36:41.655Z,3.87
2022-11-18T20:39:15.340Z,3.70
2022-11-18T20:41:43.366Z,4.77
2022-11-18T20:44:11.068Z,3.73
2022-11-18T20:46:38.596Z,4.17
2022-11-18T20:49:05.497Z,6.77
2022-11-18T20:51:33.996Z,5.63
2022-11-18T20:54:07.665Z,4.43
2022-11-18T20:56:35.312Z,3.83
2022-11-18T20:59:02.916Z,4.53
2022-11-18T21:01:30.597Z,5.20
2022-11-18T21:04:03.568Z,3.50
2022-11-18T21:06:32.980Z,5.23
2022-11-18T21:09:03.035Z,3.03
2022-11-18T21:11:36.291Z,5.07
2022-11-18T21:14:24.600Z,2.77
2022-11-18T21:16:57.874Z,2.60
2022-11-18T21:19:26.376Z,4.37
2022-11-18T21:21:55.049Z,3.40
2022-11-18T21:24:28.811Z,3.23
2022-11-18T21:26:57.798Z,3.80
2022-11-18T21:29:29.376Z,3.20
2022-11-18T21:32:00.532Z,2.07
2022-11-18T21:34:28.819Z,1.73
2022-11-18T21:36:55.749Z,1.80
2022-11-18T21:39:24.256Z,1.83
2022-11-18T21:41:55.669Z,1.17
2022-11-18T21:44:24.754Z,3.73
2022-11-18T21:46:52.398Z,1.43
2022-11-18T21:49:20.102Z,2.70
2022-11-18T21:51:47.937Z,1.27
2022-11-18T21:54:18.304Z,1.30
2022-11-18T21:56:45.413Z,0.57
2022-11-18T21:59:13.181Z,0.47
2022-11-18T22:01:40.738Z,0.30
2022-11-18T22:04:07.595Z,1.93
2022-11-18T22:06:35.319Z,0.50
2022-11-18T22:09:03.950Z,0.77
2022-11-18T22:11:33.364Z,1.93
2022-11-18T22:14:00.918Z,1.00
2022-11-18T22:16:28.463Z,3.47
2022-11-18T22:19:02.414Z,1.33
2022-11-18T22:21:32.320Z,1.87
2022-11-18T22:24:01.589Z,1.57
2022-11-18T22:26:29.361Z,1.73
2022-11-18T22:28:57.973Z,0.33
2022-11-18T22:31:28.158Z,0.30
2022-11-18T22:33:56.428Z,0.40
2022-11-18T22:36:25.136Z,0.40
2022-11-18T22:38:52.845Z,0.30
2022-11-18T22:41:42.903Z,1.60
2022-11-18T22:44:11.863Z,1.57
2022-11-18T22:46:41.579Z,0.30
2022-11-18T22:49:11.064Z,1.40
2022-11-18T22:51:40.088Z,0.27
2022-11-18T22:54:38.261Z,0.40
2022-11-18T22:56:56.212Z,0.50
2022-11-18T22:59:23.812Z,0.40
2022-11-18T23:01:52.073Z,0.80
2022-11-18T23:04:19.817Z,0.40
2022-11-18T23:06:48.879Z,2.07
2022-11-18T23:09:17.945Z,0.90
2022-11-18T23:12:06.211Z,1.40
2022-11-18T23:14:33.320Z,0.37
2022-11-18T23:17:01.031Z,0.23
2022-11-18T23:19:27.893Z,1.60
2022-11-18T23:21:55.465Z,0.87
2022-11-18T23:24:25.429Z,0.20
2022-11-18T23:26:52.976Z,0.33
2022-11-18T23:29:21.144Z,0.40
2022-11-18T23:31:49.258Z,0.70
2022-11-18T23:34:17.191Z,1.23
2022-11-18T23:36:44.776Z,0.40
2022-11-18T23:39:13.479Z,0.30
2022-11-18T23:41:41.031Z,0.30
2022-11-18T23:44:07.914Z,1.90
2022-11-18T23:46:36.056Z,0.50
2022-11-18T23:49:09.091Z,0.93
2022-11-18T23:51:37.414Z,1.73
2022-11-18T23:54:05.047Z,0.20
2022-11-18T23:56:37.835Z,2.70
2022-11-18T23:59:06.718Z,0.50
